sensor_id;sensor_type;location;lat;lon;timestamp;temperature;humidity
60234;DHT22;49514;43.538;-5.708;2023-02-08T00:00:33;4.50;99.90
60234;DHT22;49514;43.538;-5.708;2023-02-08T00:03:00;4.40;99.90
60234;DHT22;49514;43.538;-5.708;2023-02-08T00:05:26;4.40;99.90
60234;DHT22;49514;43.538;-5.708;2023-02-08T00:07:52;4.40;99.90
60234;DHT22;49514;43.538;-5.708;2023-02-08T00:10:19;4.30;99.90
60234;DHT22;49514;43.538;-5.708;2023-02-08T00:12:45;4.20;99.90
60234;DHT22;49514;43.538;-5.708;2023-02-08T00:15:12;4.20;99.90
60234;DHT22;49514;43.538;-5.708;2023-02-08T00:17:38;4.10;99.90
60234;DHT22;49514;43.538;-5.708;2023-02-08T00:20:05;4.10;99.90
60234;DHT22;49514;43.538;-5.708;2023-02-08T00:22:31;4.10;99.90
60234;DHT22;49514;43.538;-5.708;2023-02-08T00:24:58;4.20;99.90
60234;DHT22;49514;43.538;-5.708;2023-02-08T00:27:24;4.20;99.90
60234;DHT22;49514;43.538;-5.708;2023-02-08T00:29:51;4.20;99.90
60234;DHT22;49514;43.538;-5.708;2023-02-08T00:32:17;4.20;99.90
60234;DHT22;49514;43.538;-5.708;2023-02-08T00:34:43;4.20;99.90
60234;DHT22;49514;43.538;-5.708;2023-02-08T00:37:10;4.20;99.90
60234;DHT22;49514;43.538;-5.708;2023-02-08T00:39:36;4.20;99.90
60234;DHT22;49514;43.538;-5.708;2023-02-08T00:42:02;4.10;99.90
60234;DHT22;49514;43.538;-5.708;2023-02-08T00:44:29;4.10;99.90
60234;DHT22;49514;43.538;-5.708;2023-02-08T00:46:56;4.00;99.90
60234;DHT22;49514;43.538;-5.708;2023-02-08T00:49:22;4.00;99.90
60234;DHT22;49514;43.538;-5.708;2023-02-08T00:51:49;3.90;99.90
60234;DHT22;49514;43.538;-5.708;2023-02-08T00:54:19;3.90;99.90
60234;DHT22;49514;43.538;-5.708;2023-02-08T00:56:46;3.80;99.90
60234;DHT22;49514;43.538;-5.708;2023-02-08T00:59:12;3.90;99.90
60234;DHT22;49514;43.538;-5.708;2023-02-08T01:01:39;3.80;99.90
60234;DHT22;49514;43.538;-5.708;2023-02-08T01:04:06;3.90;99.90
60234;DHT22;49514;43.538;-5.708;2023-02-08T01:06:33;4.00;99.90
60234;DHT22;49514;43.538;-5.708;2023-02-08T01:08:59;4.00;99.90
60234;DHT22;49514;43.538;-5.708;2023-02-08T01:11:25;4.00;99.90
60234;DHT22;49514;43.538;-5.708;2023-02-08T01:13:53;4.10;99.90
60234;DHT22;49514;43.538;-5.708;2023-02-08T01:16:22;4.10;99.90
60234;DHT22;49514;43.538;-5.708;2023-02-08T01:18:49;4.10;99.90
60234;DHT22;49514;43.538;-5.708;2023-02-08T01:21:18;4.10;99.90
60234;DHT22;49514;43.538;-5.708;2023-02-08T01:23:45;4.00;99.90
60234;DHT22;49514;43.538;-5.708;2023-02-08T01:26:12;4.00;99.90
60234;DHT22;49514;43.538;-5.708;2023-02-08T01:28:39;4.00;99.90
60234;DHT22;49514;43.538;-5.708;2023-02-08T01:31:06;4.10;99.90
60234;DHT22;49514;43.538;-5.708;2023-02-08T01:33:33;4.10;99.90
60234;DHT22;49514;43.538;-5.708;2023-02-08T01:35:59;4.10;99.90
60234;DHT22;49514;43.538;-5.708;2023-02-08T01:38:25;4.10;99.90
60234;DHT22;49514;43.538;-5.708;2023-02-08T01:40:52;4.10;99.90
60234;DHT22;49514;43.538;-5.708;2023-02-08T01:43:26;4.10;99.90
60234;DHT22;49514;43.538;-5.708;2023-02-08T01:45:52;4.10;99.90
60234;DHT22;49514;43.538;-5.708;2023-02-08T01:48:26;4.00;99.90
60234;DHT22;49514;43.538;-5.708;2023-02-08T01:50:58;4.00;99.90
60234;DHT22;49514;43.538;-5.708;2023-02-08T01:53:27;3.90;99.90
60234;DHT22;49514;43.538;-5.708;2023-02-08T01:55:55;3.90;99.90
60234;DHT22;49514;43.538;-5.708;2023-02-08T01:58:22;3.90;99.90
60234;DHT22;49514;43.538;-5.708;2023-02-08T02:00:50;3.80;99.90
60234;DHT22;49514;43.538;-5.708;2023-02-08T02:03:17;3.80;99.90
60234;DHT22;49514;43.538;-5.708;2023-02-08T02:05:46;3.80;99.90
60234;DHT22;49514;43.538;-5.708;2023-02-08T02:08:13;3.80;99.90
60234;DHT22;49514;43.538;-5.708;2023-02-08T02:10:40;3.80;99.90
60234;DHT22;49514;43.538;-5.708;2023-02-08T02:13:14;3.70;99.90
60234;DHT22;49514;43.538;-5.708;2023-02-08T02:15:43;3.70;99.90
60234;DHT22;49514;43.538;-5.708;2023-02-08T02:18:09;3.70;99.90
60234;DHT22;49514;43.538;-5.708;2023-02-08T02:23:19;3.60;99.90
60234;DHT22;49514;43.538;-5.708;2023-02-08T02:36:34;3.50;99.90
60234;DHT22;49514;43.538;-5.708;2023-02-08T02:39:04;3.50;99.90
60234;DHT22;49514;43.538;-5.708;2023-02-08T02:47:08;3.40;99.90
60234;DHT22;49514;43.538;-5.708;2023-02-08T02:49:38;3.40;99.90
60234;DHT22;49514;43.538;-5.708;2023-02-08T02:52:12;3.40;99.90
60234;DHT22;49514;43.538;-5.708;2023-02-08T02:54:41;3.40;99.90
60234;DHT22;49514;43.538;-5.708;2023-02-08T02:57:09;3.40;99.90
60234;DHT22;49514;43.538;-5.708;2023-02-08T02:59:37;3.30;99.90
60234;DHT22;49514;43.538;-5.708;2023-02-08T03:02:04;3.40;99.90
60234;DHT22;49514;43.538;-5.708;2023-02-08T03:20:42;3.40;99.90
60234;DHT22;49514;43.538;-5.708;2023-02-08T03:23:18;3.40;99.90
60234;DHT22;49514;43.538;-5.708;2023-02-08T03:28:21;3.30;99.90
60234;DHT22;49514;43.538;-5.708;2023-02-08T03:33:39;3.20;99.90
60234;DHT22;49514;43.538;-5.708;2023-02-08T03:36:11;3.30;99.90
60234;DHT22;49514;43.538;-5.708;2023-02-08T03:38:40;3.30;99.90
60234;DHT22;49514;43.538;-5.708;2023-02-08T03:41:11;3.20;99.90
60234;DHT22;49514;43.538;-5.708;2023-02-08T03:43:45;3.20;99.90
60234;DHT22;49514;43.538;-5.708;2023-02-08T03:48:40;3.20;99.90
60234;DHT22;49514;43.538;-5.708;2023-02-08T03:51:08;3.20;99.90
60234;DHT22;49514;43.538;-5.708;2023-02-08T03:53:34;3.10;99.90
60234;DHT22;49514;43.538;-5.708;2023-02-08T03:56:08;3.10;99.90
60234;DHT22;49514;43.538;-5.708;2023-02-08T03:58:38;3.10;99.90
60234;DHT22;49514;43.538;-5.708;2023-02-08T04:01:06;3.10;99.90
60234;DHT22;49514;43.538;-5.708;2023-02-08T04:03:34;3.10;99.90
60234;DHT22;49514;43.538;-5.708;2023-02-08T04:06:01;3.10;99.90
60234;DHT22;49514;43.538;-5.708;2023-02-08T04:08:28;3.10;99.90
60234;DHT22;49514;43.538;-5.708;2023-02-08T04:10:54;3.10;99.90
60234;DHT22;49514;43.538;-5.708;2023-02-08T04:13:20;3.10;99.90
60234;DHT22;49514;43.538;-5.708;2023-02-08T04:15:47;3.10;99.90
60234;DHT22;49514;43.538;-5.708;2023-02-08T04:18:13;3.00;99.90
60234;DHT22;49514;43.538;-5.708;2023-02-08T04:20:39;3.00;99.90
60234;DHT22;49514;43.538;-5.708;2023-02-08T04:23:06;3.00;99.90
60234;DHT22;49514;43.538;-5.708;2023-02-08T04:25:32;2.90;99.90
60234;DHT22;49514;43.538;-5.708;2023-02-08T04:27:58;2.90;99.90
60234;DHT22;49514;43.538;-5.708;2023-02-08T04:30:25;2.80;99.90
60234;DHT22;49514;43.538;-5.708;2023-02-08T04:32:51;2.90;99.90
60234;DHT22;49514;43.538;-5.708;2023-02-08T04:35:17;2.90;99.90
60234;DHT22;49514;43.538;-5.708;2023-02-08T04:37:44;2.80;99.90
60234;DHT22;49514;43.538;-5.708;2023-02-08T04:40:10;2.80;99.90
60234;DHT22;49514;43.538;-5.708;2023-02-08T04:42:37;2.80;99.90
60234;DHT22;49514;43.538;-5.708;2023-02-08T04:45:03;2.80;99.90
60234;DHT22;49514;43.538;-5.708;2023-02-08T04:47:30;2.80;99.90
60234;DHT22;49514;43.538;-5.708;2023-02-08T04:49:56;2.70;99.90
60234;DHT22;49514;43.538;-5.708;2023-02-08T04:52:22;2.70;99.90
60234;DHT22;49514;43.538;-5.708;2023-02-08T04:54:49;2.70;99.90
60234;DHT22;49514;43.538;-5.708;2023-02-08T04:57:15;2.70;99.90
60234;DHT22;49514;43.538;-5.708;2023-02-08T04:59:41;2.60;99.90
60234;DHT22;49514;43.538;-5.708;2023-02-08T05:02:08;2.60;99.90
60234;DHT22;49514;43.538;-5.708;2023-02-08T05:04:34;2.70;99.90
60234;DHT22;49514;43.538;-5.708;2023-02-08T05:07:01;2.60;99.90
60234;DHT22;49514;43.538;-5.708;2023-02-08T05:09:27;2.70;99.90
60234;DHT22;49514;43.538;-5.708;2023-02-08T05:11:53;2.70;99.90
60234;DHT22;49514;43.538;-5.708;2023-02-08T05:14:20;2.60;99.90
60234;DHT22;49514;43.538;-5.708;2023-02-08T05:16:46;2.60;99.90
60234;DHT22;49514;43.538;-5.708;2023-02-08T05:19:12;2.60;99.90
60234;DHT22;49514;43.538;-5.708;2023-02-08T05:21:39;2.70;99.90
60234;DHT22;49514;43.538;-5.708;2023-02-08T05:24:05;2.70;99.90
60234;DHT22;49514;43.538;-5.708;2023-02-08T05:26:32;2.70;99.90
60234;DHT22;49514;43.538;-5.708;2023-02-08T05:28:58;2.80;99.90
60234;DHT22;49514;43.538;-5.708;2023-02-08T05:31:24;2.80;99.90
60234;DHT22;49514;43.538;-5.708;2023-02-08T05:33:51;2.80;99.90
60234;DHT22;49514;43.538;-5.708;2023-02-08T05:36:18;2.70;99.90
60234;DHT22;49514;43.538;-5.708;2023-02-08T05:38:44;2.80;99.90
60234;DHT22;49514;43.538;-5.708;2023-02-08T05:41:11;2.80;99.90
60234;DHT22;49514;43.538;-5.708;2023-02-08T05:43:37;2.80;99.90
60234;DHT22;49514;43.538;-5.708;2023-02-08T05:46:04;2.80;99.90
60234;DHT22;49514;43.538;-5.708;2023-02-08T05:48:30;2.80;99.90
60234;DHT22;49514;43.538;-5.708;2023-02-08T05:50:57;2.80;99.90
60234;DHT22;49514;43.538;-5.708;2023-02-08T05:53:24;2.80;99.90
60234;DHT22;49514;43.538;-5.708;2023-02-08T05:55:51;2.80;99.90
60234;DHT22;49514;43.538;-5.708;2023-02-08T05:58:17;2.70;99.90
60234;DHT22;49514;43.538;-5.708;2023-02-08T06:00:44;2.80;99.90
60234;DHT22;49514;43.538;-5.708;2023-02-08T06:03:10;2.80;99.90
60234;DHT22;49514;43.538;-5.708;2023-02-08T06:05:37;2.80;99.90
60234;DHT22;49514;43.538;-5.708;2023-02-08T06:08:04;2.80;99.90
60234;DHT22;49514;43.538;-5.708;2023-02-08T06:10:31;2.80;99.90
60234;DHT22;49514;43.538;-5.708;2023-02-08T06:12:57;2.80;99.90
60234;DHT22;49514;43.538;-5.708;2023-02-08T06:15:23;2.80;99.90
60234;DHT22;49514;43.538;-5.708;2023-02-08T06:17:50;2.90;99.90
60234;DHT22;49514;43.538;-5.708;2023-02-08T06:20:17;3.00;99.90
60234;DHT22;49514;43.538;-5.708;2023-02-08T06:22:43;2.90;99.90
60234;DHT22;49514;43.538;-5.708;2023-02-08T06:25:10;2.90;99.90
60234;DHT22;49514;43.538;-5.708;2023-02-08T06:27:36;2.90;99.90
60234;DHT22;49514;43.538;-5.708;2023-02-08T06:30:03;2.90;99.90
60234;DHT22;49514;43.538;-5.708;2023-02-08T06:32:30;2.90;99.90
60234;DHT22;49514;43.538;-5.708;2023-02-08T06:34:56;2.90;99.90
60234;DHT22;49514;43.538;-5.708;2023-02-08T06:37:23;2.90;99.90
60234;DHT22;49514;43.538;-5.708;2023-02-08T06:39:49;2.90;99.90
60234;DHT22;49514;43.538;-5.708;2023-02-08T06:42:16;2.90;99.90
60234;DHT22;49514;43.538;-5.708;2023-02-08T06:44:42;2.90;99.90
60234;DHT22;49514;43.538;-5.708;2023-02-08T06:47:08;2.80;99.90
60234;DHT22;49514;43.538;-5.708;2023-02-08T06:49:35;2.80;99.90
60234;DHT22;49514;43.538;-5.708;2023-02-08T06:52:01;2.80;99.90
60234;DHT22;49514;43.538;-5.708;2023-02-08T06:54:28;2.80;99.90
60234;DHT22;49514;43.538;-5.708;2023-02-08T06:56:54;2.80;99.90
60234;DHT22;49514;43.538;-5.708;2023-02-08T06:59:21;2.80;99.90
60234;DHT22;49514;43.538;-5.708;2023-02-08T07:01:47;2.70;99.90
60234;DHT22;49514;43.538;-5.708;2023-02-08T07:04:14;2.70;99.90
60234;DHT22;49514;43.538;-5.708;2023-02-08T07:06:40;2.70;99.90
60234;DHT22;49514;43.538;-5.708;2023-02-08T07:09:06;2.60;99.90
60234;DHT22;49514;43.538;-5.708;2023-02-08T07:11:33;2.70;99.90
60234;DHT22;49514;43.538;-5.708;2023-02-08T07:13:59;2.70;99.90
60234;DHT22;49514;43.538;-5.708;2023-02-08T07:16:26;2.80;99.90
60234;DHT22;49514;43.538;-5.708;2023-02-08T07:18:52;2.80;99.90
60234;DHT22;49514;43.538;-5.708;2023-02-08T07:21:18;2.80;99.90
60234;DHT22;49514;43.538;-5.708;2023-02-08T07:23:46;2.90;99.90
60234;DHT22;49514;43.538;-5.708;2023-02-08T07:26:13;2.80;99.90
60234;DHT22;49514;43.538;-5.708;2023-02-08T07:28:40;2.90;99.90
60234;DHT22;49514;43.538;-5.708;2023-02-08T07:31:07;2.80;99.90
60234;DHT22;49514;43.538;-5.708;2023-02-08T07:33:34;2.80;99.90
60234;DHT22;49514;43.538;-5.708;2023-02-08T07:36:00;2.90;99.90
60234;DHT22;49514;43.538;-5.708;2023-02-08T07:38:28;2.80;99.90
60234;DHT22;49514;43.538;-5.708;2023-02-08T07:41:04;2.80;99.90
60234;DHT22;49514;43.538;-5.708;2023-02-08T07:43:32;2.80;99.90
60234;DHT22;49514;43.538;-5.708;2023-02-08T07:46:14;2.90;99.90
60234;DHT22;49514;43.538;-5.708;2023-02-08T07:48:40;2.90;99.90
60234;DHT22;49514;43.538;-5.708;2023-02-08T07:51:07;2.90;99.90
60234;DHT22;49514;43.538;-5.708;2023-02-08T07:53:34;2.90;99.90
60234;DHT22;49514;43.538;-5.708;2023-02-08T07:56:00;2.90;99.90
60234;DHT22;49514;43.538;-5.708;2023-02-08T07:58:27;3.00;99.90
60234;DHT22;49514;43.538;-5.708;2023-02-08T08:00:54;3.00;99.90
60234;DHT22;49514;43.538;-5.708;2023-02-08T08:03:20;3.10;99.90
60234;DHT22;49514;43.538;-5.708;2023-02-08T08:05:47;3.10;99.90
60234;DHT22;49514;43.538;-5.708;2023-02-08T08:08:14;3.20;99.90
60234;DHT22;49514;43.538;-5.708;2023-02-08T08:10:41;3.20;99.90
60234;DHT22;49514;43.538;-5.708;2023-02-08T08:13:07;3.30;99.90
60234;DHT22;49514;43.538;-5.708;2023-02-08T08:15:34;3.30;99.90
60234;DHT22;49514;43.538;-5.708;2023-02-08T08:18:00;3.40;99.90
60234;DHT22;49514;43.538;-5.708;2023-02-08T08:20:26;3.40;99.90
60234;DHT22;49514;43.538;-5.708;2023-02-08T08:22:53;3.40;99.90
60234;DHT22;49514;43.538;-5.708;2023-02-08T08:25:19;3.40;99.90
60234;DHT22;49514;43.538;-5.708;2023-02-08T08:27:46;3.50;99.90
60234;DHT22;49514;43.538;-5.708;2023-02-08T08:30:13;3.50;99.90
60234;DHT22;49514;43.538;-5.708;2023-02-08T08:32:40;3.50;99.90
60234;DHT22;49514;43.538;-5.708;2023-02-08T08:35:07;3.60;99.90
60234;DHT22;49514;43.538;-5.708;2023-02-08T08:37:34;3.60;99.90
60234;DHT22;49514;43.538;-5.708;2023-02-08T08:40:00;3.70;99.90
60234;DHT22;49514;43.538;-5.708;2023-02-08T08:42:27;3.70;99.90
60234;DHT22;49514;43.538;-5.708;2023-02-08T08:44:53;3.80;99.90
60234;DHT22;49514;43.538;-5.708;2023-02-08T08:47:20;3.90;99.90
60234;DHT22;49514;43.538;-5.708;2023-02-08T08:49:46;3.90;99.90
60234;DHT22;49514;43.538;-5.708;2023-02-08T08:52:13;4.00;99.90
60234;DHT22;49514;43.538;-5.708;2023-02-08T08:54:39;4.00;99.90
60234;DHT22;49514;43.538;-5.708;2023-02-08T08:57:06;4.00;99.90
60234;DHT22;49514;43.538;-5.708;2023-02-08T08:59:32;4.10;99.90
60234;DHT22;49514;43.538;-5.708;2023-02-08T09:01:59;4.20;99.90
60234;DHT22;49514;43.538;-5.708;2023-02-08T09:04:25;4.30;99.90
60234;DHT22;49514;43.538;-5.708;2023-02-08T09:06:52;4.30;99.90
60234;DHT22;49514;43.538;-5.708;2023-02-08T09:09:20;4.30;99.90
60234;DHT22;49514;43.538;-5.708;2023-02-08T09:11:47;4.40;99.90
60234;DHT22;49514;43.538;-5.708;2023-02-08T09:14:14;4.50;99.90
60234;DHT22;49514;43.538;-5.708;2023-02-08T09:16:41;4.50;99.90
60234;DHT22;49514;43.538;-5.708;2023-02-08T09:19:08;4.60;99.90
60234;DHT22;49514;43.538;-5.708;2023-02-08T09:21:35;4.60;99.90
60234;DHT22;49514;43.538;-5.708;2023-02-08T09:24:02;4.70;99.90
60234;DHT22;49514;43.538;-5.708;2023-02-08T09:26:29;4.70;99.90
60234;DHT22;49514;43.538;-5.708;2023-02-08T09:28:55;4.80;99.90
60234;DHT22;49514;43.538;-5.708;2023-02-08T09:31:25;4.90;99.90
60234;DHT22;49514;43.538;-5.708;2023-02-08T09:33:53;4.90;99.90
60234;DHT22;49514;43.538;-5.708;2023-02-08T09:36:22;5.00;99.90
60234;DHT22;49514;43.538;-5.708;2023-02-08T09:38:52;5.00;99.90
60234;DHT22;49514;43.538;-5.708;2023-02-08T09:47:27;5.30;99.90
60234;DHT22;49514;43.538;-5.708;2023-02-08T09:49:56;5.40;99.90
60234;DHT22;49514;43.538;-5.708;2023-02-08T09:55:42;5.60;99.90
60234;DHT22;49514;43.538;-5.708;2023-02-08T10:01:02;5.80;99.90
60234;DHT22;49514;43.538;-5.708;2023-02-08T10:03:38;5.90;99.90
60234;DHT22;49514;43.538;-5.708;2023-02-08T10:06:16;6.00;99.90
60234;DHT22;49514;43.538;-5.708;2023-02-08T10:08:44;6.10;99.90
60234;DHT22;49514;43.538;-5.708;2023-02-08T10:22:33;6.50;99.90
60234;DHT22;49514;43.538;-5.708;2023-02-08T10:33:59;6.80;99.90
60234;DHT22;49514;43.538;-5.708;2023-02-08T10:36:31;6.90;99.90
60234;DHT22;49514;43.538;-5.708;2023-02-08T10:38:59;7.00;99.90
60234;DHT22;49514;43.538;-5.708;2023-02-08T10:41:33;7.10;99.90
60234;DHT22;49514;43.538;-5.708;2023-02-08T10:46:42;7.20;99.90
60234;DHT22;49514;43.538;-5.708;2023-02-08T10:52:00;7.40;99.90
60234;DHT22;49514;43.538;-5.708;2023-02-08T10:54:28;7.50;99.90
60234;DHT22;49514;43.538;-5.708;2023-02-08T10:56:59;7.60;99.90
60234;DHT22;49514;43.538;-5.708;2023-02-08T10:59:54;7.60;99.90
60234;DHT22;49514;43.538;-5.708;2023-02-08T11:02:32;7.70;99.90
60234;DHT22;49514;43.538;-5.708;2023-02-08T11:05:06;7.80;99.90
60234;DHT22;49514;43.538;-5.708;2023-02-08T11:07:34;7.90;99.90
60234;DHT22;49514;43.538;-5.708;2023-02-08T11:15:42;8.00;99.90
60234;DHT22;49514;43.538;-5.708;2023-02-08T11:18:24;8.10;99.90
60234;DHT22;49514;43.538;-5.708;2023-02-08T11:20:57;8.10;99.90
60234;DHT22;49514;43.538;-5.708;2023-02-08T11:23:29;8.20;99.90
60234;DHT22;49514;43.538;-5.708;2023-02-08T11:26:20;8.20;99.90
60234;DHT22;49514;43.538;-5.708;2023-02-08T11:31:59;8.40;99.90
60234;DHT22;49514;43.538;-5.708;2023-02-08T11:37:19;8.60;99.90
60234;DHT22;49514;43.538;-5.708;2023-02-08T11:39:51;8.60;99.90
60234;DHT22;49514;43.538;-5.708;2023-02-08T11:42:40;8.70;99.90
60234;DHT22;49514;43.538;-5.708;2023-02-08T11:45:41;8.90;99.90
60234;DHT22;49514;43.538;-5.708;2023-02-08T11:48:23;9.00;99.90
60234;DHT22;49514;43.538;-5.708;2023-02-08T11:50:56;9.20;99.90
60234;DHT22;49514;43.538;-5.708;2023-02-08T11:53:30;9.30;99.90
60234;DHT22;49514;43.538;-5.708;2023-02-08T11:58:34;9.70;99.90
60234;DHT22;49514;43.538;-5.708;2023-02-08T12:01:18;9.80;99.90
60234;DHT22;49514;43.538;-5.708;2023-02-08T12:03:46;10.00;99.90
60234;DHT22;49514;43.538;-5.708;2023-02-08T12:09:06;10.30;99.90
60234;DHT22;49514;43.538;-5.708;2023-02-08T12:14:39;10.60;99.90
60234;DHT22;49514;43.538;-5.708;2023-02-08T12:22:12;11.00;99.90
60234;DHT22;49514;43.538;-5.708;2023-02-08T12:30:49;11.40;99.90
60234;DHT22;49514;43.538;-5.708;2023-02-08T12:33:48;11.60;99.90
60234;DHT22;49514;43.538;-5.708;2023-02-08T12:49:39;19.90;99.90
60234;DHT22;49514;43.538;-5.708;2023-02-08T12:55:02;23.30;99.90
60234;DHT22;49514;43.538;-5.708;2023-02-08T12:57:31;24.60;99.90
60234;DHT22;49514;43.538;-5.708;2023-02-08T13:02:31;26.80;96.90
60234;DHT22;49514;43.538;-5.708;2023-02-08T13:05:03;27.30;94.00
60234;DHT22;49514;43.538;-5.708;2023-02-08T13:07:43;27.90;87.80
60234;DHT22;49514;43.538;-5.708;2023-02-08T13:13:00;29.10;83.30
60234;DHT22;49514;43.538;-5.708;2023-02-08T13:15:43;29.80;78.80
60234;DHT22;49514;43.538;-5.708;2023-02-08T13:18:30;30.40;72.60
60234;DHT22;49514;43.538;-5.708;2023-02-08T13:21:02;31.10;72.50
60234;DHT22;49514;43.538;-5.708;2023-02-08T13:23:40;31.70;70.90
60234;DHT22;49514;43.538;-5.708;2023-02-08T13:26:14;31.90;70.80
60234;DHT22;49514;43.538;-5.708;2023-02-08T13:28:48;32.50;68.20
60234;DHT22;49514;43.538;-5.708;2023-02-08T13:31:22;33.10;69.50
60234;DHT22;49514;43.538;-5.708;2023-02-08T13:34:24;33.50;63.70
60234;DHT22;49514;43.538;-5.708;2023-02-08T13:37:02;33.80;63.10
60234;DHT22;49514;43.538;-5.708;2023-02-08T13:39:33;34.40;62.60
60234;DHT22;49514;43.538;-5.708;2023-02-08T13:42:02;34.80;59.20
60234;DHT22;49514;43.538;-5.708;2023-02-08T13:44:39;35.10;62.60
60234;DHT22;49514;43.538;-5.708;2023-02-08T13:47:07;35.40;59.00
60234;DHT22;49514;43.538;-5.708;2023-02-08T13:50:36;35.30;59.30
60234;DHT22;49514;43.538;-5.708;2023-02-08T13:52:47;35.60;57.10
60234;DHT22;49514;43.538;-5.708;2023-02-08T14:00:35;35.70;54.30
60234;DHT22;49514;43.538;-5.708;2023-02-08T14:03:26;35.70;55.10
60234;DHT22;49514;43.538;-5.708;2023-02-08T14:05:57;36.00;54.50
60234;DHT22;49514;43.538;-5.708;2023-02-08T14:14:12;36.30;53.50
60234;DHT22;49514;43.538;-5.708;2023-02-08T14:16:44;36.30;52.80
60234;DHT22;49514;43.538;-5.708;2023-02-08T14:21:57;35.60;50.40
60234;DHT22;49514;43.538;-5.708;2023-02-08T14:24:40;35.50;51.80
60234;DHT22;49514;43.538;-5.708;2023-02-08T14:27:25;35.90;53.50
60234;DHT22;49514;43.538;-5.708;2023-02-08T14:32:27;36.40;50.20
60234;DHT22;49514;43.538;-5.708;2023-02-08T14:35:02;36.50;51.70
60234;DHT22;49514;43.538;-5.708;2023-02-08T14:37:32;36.40;49.50
60234;DHT22;49514;43.538;-5.708;2023-02-08T14:45:51;36.20;49.50
60234;DHT22;49514;43.538;-5.708;2023-02-08T14:48:30;36.30;49.40
60234;DHT22;49514;43.538;-5.708;2023-02-08T14:56:32;36.00;49.00
60234;DHT22;49514;43.538;-5.708;2023-02-08T14:59:14;36.20;48.70
60234;DHT22;49514;43.538;-5.708;2023-02-08T15:01:49;36.30;48.70
60234;DHT22;49514;43.538;-5.708;2023-02-08T15:04:16;36.10;49.10
60234;DHT22;49514;43.538;-5.708;2023-02-08T15:09:27;35.60;49.10
60234;DHT22;49514;43.538;-5.708;2023-02-08T15:12:14;35.40;48.80
60234;DHT22;49514;43.538;-5.708;2023-02-08T15:14:42;35.70;48.60
60234;DHT22;49514;43.538;-5.708;2023-02-08T15:19:55;35.80;49.20
60234;DHT22;49514;43.538;-5.708;2023-02-08T15:24:57;36.10;48.60
60234;DHT22;49514;43.538;-5.708;2023-02-08T15:27:35;35.90;48.00
60234;DHT22;49514;43.538;-5.708;2023-02-08T15:30:02;35.70;48.20
60234;DHT22;49514;43.538;-5.708;2023-02-08T15:32:29;35.60;47.90
60234;DHT22;49514;43.538;-5.708;2023-02-08T15:35:00;35.40;49.10
60234;DHT22;49514;43.538;-5.708;2023-02-08T15:37:33;35.50;49.30
60234;DHT22;49514;43.538;-5.708;2023-02-08T15:40:01;35.20;48.30
60234;DHT22;49514;43.538;-5.708;2023-02-08T15:42:32;35.00;48.60
60234;DHT22;49514;43.538;-5.708;2023-02-08T15:44:59;34.80;48.70
60234;DHT22;49514;43.538;-5.708;2023-02-08T15:47:31;34.80;48.60
60234;DHT22;49514;43.538;-5.708;2023-02-08T15:49:59;34.60;48.90
60234;DHT22;49514;43.538;-5.708;2023-02-08T15:52:31;34.60;48.60
60234;DHT22;49514;43.538;-5.708;2023-02-08T15:54:58;34.70;49.50
60234;DHT22;49514;43.538;-5.708;2023-02-08T15:57:44;34.50;49.00
60234;DHT22;49514;43.538;-5.708;2023-02-08T16:00:37;34.20;48.80
60234;DHT22;49514;43.538;-5.708;2023-02-08T16:03:16;33.80;49.20
60234;DHT22;49514;43.538;-5.708;2023-02-08T16:05:50;33.50;49.40
60234;DHT22;49514;43.538;-5.708;2023-02-08T16:08:29;33.10;49.20
60234;DHT22;49514;43.538;-5.708;2023-02-08T16:11:10;32.80;49.20
60234;DHT22;49514;43.538;-5.708;2023-02-08T16:16:23;32.50;49.80
60234;DHT22;49514;43.538;-5.708;2023-02-08T16:19:00;32.60;50.30
60234;DHT22;49514;43.538;-5.708;2023-02-08T16:21:36;32.70;50.20
60234;DHT22;49514;43.538;-5.708;2023-02-08T16:24:06;32.50;50.10
60234;DHT22;49514;43.538;-5.708;2023-02-08T16:34:34;32.30;50.20
60234;DHT22;49514;43.538;-5.708;2023-02-08T16:37:06;31.90;50.90
60234;DHT22;49514;43.538;-5.708;2023-02-08T16:39:52;31.50;51.00
60234;DHT22;49514;43.538;-5.708;2023-02-08T16:42:23;31.20;51.30
60234;DHT22;49514;43.538;-5.708;2023-02-08T16:52:39;30.10;51.50
60234;DHT22;49514;43.538;-5.708;2023-02-08T16:55:07;29.70;52.40
60234;DHT22;49514;43.538;-5.708;2023-02-08T17:00:19;28.50;66.30
60234;DHT22;49514;43.538;-5.708;2023-02-08T17:02:46;27.10;53.80
60234;DHT22;49514;43.538;-5.708;2023-02-08T17:05:13;25.60;55.40
60234;DHT22;49514;43.538;-5.708;2023-02-08T17:07:40;24.30;56.70
60234;DHT22;49514;43.538;-5.708;2023-02-08T17:10:16;23.10;59.00
60234;DHT22;49514;43.538;-5.708;2023-02-08T17:12:43;22.20;59.90
60234;DHT22;49514;43.538;-5.708;2023-02-08T17:15:09;21.40;63.30
60234;DHT22;49514;43.538;-5.708;2023-02-08T17:17:36;20.70;64.80
60234;DHT22;49514;43.538;-5.708;2023-02-08T17:20:05;20.20;66.60
60234;DHT22;49514;43.538;-5.708;2023-02-08T17:22:32;19.70;67.90
60234;DHT22;49514;43.538;-5.708;2023-02-08T17:24:59;19.40;70.10
60234;DHT22;49514;43.538;-5.708;2023-02-08T17:27:26;19.10;70.10
60234;DHT22;49514;43.538;-5.708;2023-02-08T17:29:52;18.70;72.90
60234;DHT22;49514;43.538;-5.708;2023-02-08T17:32:19;18.50;74.00
60234;DHT22;49514;43.538;-5.708;2023-02-08T17:34:46;18.20;74.00
60234;DHT22;49514;43.538;-5.708;2023-02-08T17:37:13;18.00;75.20
60234;DHT22;49514;43.538;-5.708;2023-02-08T17:39:40;17.80;76.90
60234;DHT22;49514;43.538;-5.708;2023-02-08T17:42:07;17.60;77.60
60234;DHT22;49514;43.538;-5.708;2023-02-08T17:44:33;17.30;81.80
60234;DHT22;49514;43.538;-5.708;2023-02-08T17:47:01;17.10;81.80
60234;DHT22;49514;43.538;-5.708;2023-02-08T17:49:28;17.00;83.00
60234;DHT22;49514;43.538;-5.708;2023-02-08T17:51:56;16.80;83.00
60234;DHT22;49514;43.538;-5.708;2023-02-08T17:54:23;16.60;86.30
60234;DHT22;49514;43.538;-5.708;2023-02-08T17:56:50;16.50;88.70
60234;DHT22;49514;43.538;-5.708;2023-02-08T17:59:21;16.40;85.60
60234;DHT22;49514;43.538;-5.708;2023-02-08T18:01:49;16.30;87.50
60234;DHT22;49514;43.538;-5.708;2023-02-08T18:04:15;16.10;87.70
60234;DHT22;49514;43.538;-5.708;2023-02-08T18:06:42;15.90;90.40
60234;DHT22;49514;43.538;-5.708;2023-02-08T18:09:12;15.90;90.50
60234;DHT22;49514;43.538;-5.708;2023-02-08T18:11:39;15.80;90.70
60234;DHT22;49514;43.538;-5.708;2023-02-08T18:14:07;15.70;91.00
60234;DHT22;49514;43.538;-5.708;2023-02-08T18:16:34;15.60;92.60
60234;DHT22;49514;43.538;-5.708;2023-02-08T18:19:01;15.50;92.00
60234;DHT22;49514;43.538;-5.708;2023-02-08T18:21:28;15.40;92.70
60234;DHT22;49514;43.538;-5.708;2023-02-08T18:24:02;15.30;94.60
60234;DHT22;49514;43.538;-5.708;2023-02-08T18:26:30;15.20;95.30
60234;DHT22;49514;43.538;-5.708;2023-02-08T18:29:00;15.10;95.30
60234;DHT22;49514;43.538;-5.708;2023-02-08T18:31:28;15.00;97.20
60234;DHT22;49514;43.538;-5.708;2023-02-08T18:33:55;14.90;96.20
60234;DHT22;49514;43.538;-5.708;2023-02-08T18:36:22;14.90;96.50
60234;DHT22;49514;43.538;-5.708;2023-02-08T18:38:52;14.80;96.60
60234;DHT22;49514;43.538;-5.708;2023-02-08T18:41:22;14.70;96.80
60234;DHT22;49514;43.538;-5.708;2023-02-08T18:43:50;14.70;96.60
60234;DHT22;49514;43.538;-5.708;2023-02-08T18:46:20;14.70;97.00
60234;DHT22;49514;43.538;-5.708;2023-02-08T18:48:49;14.60;97.40